sensor_id;sensor_type;location;lat;lon;timestamp;temperature;humidity
52643;DHT22;38531;53.296;6.614;2023-09-19T00:00:44;14.50;99.90
52643;DHT22;38531;53.296;6.614;2023-09-19T00:03:12;14.60;99.90
52643;DHT22;38531;53.296;6.614;2023-09-19T00:09:19;14.40;99.90
52643;DHT22;38531;53.296;6.614;2023-09-19T00:11:44;14.40;99.90
52643;DHT22;38531;53.296;6.614;2023-09-19T00:14:13;14.30;99.90
52643;DHT22;38531;53.296;6.614;2023-09-19T00:16:39;14.30;99.90
52643;DHT22;38531;53.296;6.614;2023-09-19T00:19:12;14.30;99.90
52643;DHT22;38531;53.296;6.614;2023-09-19T00:21:38;14.20;99.90
52643;DHT22;38531;53.296;6.614;2023-09-19T00:24:07;14.30;99.90
52643;DHT22;38531;53.296;6.614;2023-09-19T00:26:34;14.20;99.90
52643;DHT22;38531;53.296;6.614;2023-09-19T00:29:00;14.20;99.90
52643;DHT22;38531;53.296;6.614;2023-09-19T00:31:29;14.20;99.90
52643;DHT22;38531;53.296;6.614;2023-09-19T00:41:18;14.30;99.90
52643;DHT22;38531;53.296;6.614;2023-09-19T00:43:46;14.30;99.90
52643;DHT22;38531;53.296;6.614;2023-09-19T00:46:17;14.30;99.90
52643;DHT22;38531;53.296;6.614;2023-09-19T00:48:43;14.30;99.90
52643;DHT22;38531;53.296;6.614;2023-09-19T00:51:09;14.30;99.90
52643;DHT22;38531;53.296;6.614;2023-09-19T00:53:35;14.30;99.90
52643;DHT22;38531;53.296;6.614;2023-09-19T00:56:03;14.40;99.90
52643;DHT22;38531;53.296;6.614;2023-09-19T00:58:33;14.30;99.90
52643;DHT22;38531;53.296;6.614;2023-09-19T01:01:01;14.30;99.90
52643;DHT22;38531;53.296;6.614;2023-09-19T01:03:29;14.30;99.90
52643;DHT22;38531;53.296;6.614;2023-09-19T01:05:55;14.20;99.90
52643;DHT22;38531;53.296;6.614;2023-09-19T01:08:20;14.20;99.90
52643;DHT22;38531;53.296;6.614;2023-09-19T01:11:13;14.20;99.90
52643;DHT22;38531;53.296;6.614;2023-09-19T01:22:27;14.00;99.90
52643;DHT22;38531;53.296;6.614;2023-09-19T01:25:31;14.00;99.90
52643;DHT22;38531;53.296;6.614;2023-09-19T01:30:53;13.70;99.90
52643;DHT22;38531;53.296;6.614;2023-09-19T01:33:26;13.80;99.90
52643;DHT22;38531;53.296;6.614;2023-09-19T01:35:52;13.80;99.90
52643;DHT22;38531;53.296;6.614;2023-09-19T01:38:19;13.90;99.90
52643;DHT22;38531;53.296;6.614;2023-09-19T01:40:57;13.80;99.90
52643;DHT22;38531;53.296;6.614;2023-09-19T01:43:38;13.70;99.90
52643;DHT22;38531;53.296;6.614;2023-09-19T01:46:14;13.70;99.90
52643;DHT22;38531;53.296;6.614;2023-09-19T01:51:55;13.60;99.90
52643;DHT22;38531;53.296;6.614;2023-09-19T01:54:41;13.60;99.90
52643;DHT22;38531;53.296;6.614;2023-09-19T02:00:22;13.60;99.90
52643;DHT22;38531;53.296;6.614;2023-09-19T02:02:49;13.50;99.90
52643;DHT22;38531;53.296;6.614;2023-09-19T02:05:26;14.00;99.90
52643;DHT22;38531;53.296;6.614;2023-09-19T02:07:53;13.40;99.90
52643;DHT22;38531;53.296;6.614;2023-09-19T02:10:20;13.40;99.90
52643;DHT22;38531;53.296;6.614;2023-09-19T02:12:46;13.40;99.90
52643;DHT22;38531;53.296;6.614;2023-09-19T02:15:12;13.40;99.90
52643;DHT22;38531;53.296;6.614;2023-09-19T02:17:37;13.40;99.90
52643;DHT22;38531;53.296;6.614;2023-09-19T02:20:04;13.50;99.90
52643;DHT22;38531;53.296;6.614;2023-09-19T02:22:40;13.40;99.90
52643;DHT22;38531;53.296;6.614;2023-09-19T02:25:09;13.40;99.90
52643;DHT22;38531;53.296;6.614;2023-09-19T02:27:35;13.30;99.90
52643;DHT22;38531;53.296;6.614;2023-09-19T02:30:01;13.30;99.90
52643;DHT22;38531;53.296;6.614;2023-09-19T02:32:30;13.30;99.90
52643;DHT22;38531;53.296;6.614;2023-09-19T02:34:57;13.30;99.90
52643;DHT22;38531;53.296;6.614;2023-09-19T02:37:25;13.30;99.90
52643;DHT22;38531;53.296;6.614;2023-09-19T02:39:52;13.30;99.90
52643;DHT22;38531;53.296;6.614;2023-09-19T02:42:21;13.30;99.90
52643;DHT22;38531;53.296;6.614;2023-09-19T02:44:47;13.20;99.90
52643;DHT22;38531;53.296;6.614;2023-09-19T02:47:13;13.20;99.90
52643;DHT22;38531;53.296;6.614;2023-09-19T02:49:43;13.30;99.90
52643;DHT22;38531;53.296;6.614;2023-09-19T02:52:09;13.20;99.90
52643;DHT22;38531;53.296;6.614;2023-09-19T02:54:37;13.20;99.90
52643;DHT22;38531;53.296;6.614;2023-09-19T02:57:06;13.20;99.90
52643;DHT22;38531;53.296;6.614;2023-09-19T02:59:33;13.20;99.90
52643;DHT22;38531;53.296;6.614;2023-09-19T03:01:59;13.10;99.90
52643;DHT22;38531;53.296;6.614;2023-09-19T03:04:28;13.20;99.90
52643;DHT22;38531;53.296;6.614;2023-09-19T03:06:54;13.20;99.90
52643;DHT22;38531;53.296;6.614;2023-09-19T03:09:25;13.10;99.90
52643;DHT22;38531;53.296;6.614;2023-09-19T03:11:51;13.10;99.90
52643;DHT22;38531;53.296;6.614;2023-09-19T03:14:17;13.00;99.90
52643;DHT22;38531;53.296;6.614;2023-09-19T03:16:45;13.10;99.90
52643;DHT22;38531;53.296;6.614;2023-09-19T03:19:11;13.10;99.90
52643;DHT22;38531;53.296;6.614;2023-09-19T03:21:37;13.10;99.90
52643;DHT22;38531;53.296;6.614;2023-09-19T03:24:04;13.10;99.90
52643;DHT22;38531;53.296;6.614;2023-09-19T03:26:30;13.10;99.90
52643;DHT22;38531;53.296;6.614;2023-09-19T03:28:56;13.10;99.90
52643;DHT22;38531;53.296;6.614;2023-09-19T03:31:22;13.50;99.90
52643;DHT22;38531;53.296;6.614;2023-09-19T03:33:47;13.00;99.90
52643;DHT22;38531;53.296;6.614;2023-09-19T03:36:15;13.00;99.90
52643;DHT22;38531;53.296;6.614;2023-09-19T03:38:41;13.00;99.90
52643;DHT22;38531;53.296;6.614;2023-09-19T03:41:07;13.00;99.90
52643;DHT22;38531;53.296;6.614;2023-09-19T03:43:33;12.90;99.90
52643;DHT22;38531;53.296;6.614;2023-09-19T03:46:01;12.90;99.90
52643;DHT22;38531;53.296;6.614;2023-09-19T03:48:30;12.90;99.90
52643;DHT22;38531;53.296;6.614;2023-09-19T03:50:56;12.90;99.90
52643;DHT22;38531;53.296;6.614;2023-09-19T03:53:22;12.90;99.90
52643;DHT22;38531;53.296;6.614;2023-09-19T03:55:48;12.70;99.90
52643;DHT22;38531;53.296;6.614;2023-09-19T03:58:14;12.80;99.90
52643;DHT22;38531;53.296;6.614;2023-09-19T04:00:40;12.80;99.90
52643;DHT22;38531;53.296;6.614;2023-09-19T04:03:06;12.80;99.90
52643;DHT22;38531;53.296;6.614;2023-09-19T04:05:33;12.80;99.90
52643;DHT22;38531;53.296;6.614;2023-09-19T04:07:59;12.80;99.90
52643;DHT22;38531;53.296;6.614;2023-09-19T04:10:25;12.80;99.90
52643;DHT22;38531;53.296;6.614;2023-09-19T04:12:54;12.80;99.90
52643;DHT22;38531;53.296;6.614;2023-09-19T04:15:20;12.80;99.90
52643;DHT22;38531;53.296;6.614;2023-09-19T04:17:50;12.90;99.90
52643;DHT22;38531;53.296;6.614;2023-09-19T04:20:17;12.80;99.90
52643;DHT22;38531;53.296;6.614;2023-09-19T04:22:43;12.80;99.90
52643;DHT22;38531;53.296;6.614;2023-09-19T04:25:09;12.80;99.90
52643;DHT22;38531;53.296;6.614;2023-09-19T04:27:38;12.80;99.90
52643;DHT22;38531;53.296;6.614;2023-09-19T04:30:09;12.80;99.90
52643;DHT22;38531;53.296;6.614;2023-09-19T04:32:39;12.90;99.90
52643;DHT22;38531;53.296;6.614;2023-09-19T04:35:09;12.90;99.90
52643;DHT22;38531;53.296;6.614;2023-09-19T04:37:39;12.90;99.90
52643;DHT22;38531;53.296;6.614;2023-09-19T04:40:10;12.90;99.90
52643;DHT22;38531;53.296;6.614;2023-09-19T04:42:53;13.10;99.90
52643;DHT22;38531;53.296;6.614;2023-09-19T04:45:23;12.90;99.90
52643;DHT22;38531;53.296;6.614;2023-09-19T04:47:49;13.00;99.90
52643;DHT22;38531;53.296;6.614;2023-09-19T04:50:14;13.00;99.90
52643;DHT22;38531;53.296;6.614;2023-09-19T04:52:43;13.00;99.90
52643;DHT22;38531;53.296;6.614;2023-09-19T04:55:14;13.10;99.90
52643;DHT22;38531;53.296;6.614;2023-09-19T04:57:50;13.10;99.90
52643;DHT22;38531;53.296;6.614;2023-09-19T05:00:21;13.00;99.90
52643;DHT22;38531;53.296;6.614;2023-09-19T05:02:51;13.10;99.90
52643;DHT22;38531;53.296;6.614;2023-09-19T05:05:17;13.10;99.90
52643;DHT22;38531;53.296;6.614;2023-09-19T05:07:44;13.10;99.90
52643;DHT22;38531;53.296;6.614;2023-09-19T05:10:11;13.10;99.90
52643;DHT22;38531;53.296;6.614;2023-09-19T05:12:40;13.10;99.90
52643;DHT22;38531;53.296;6.614;2023-09-19T05:15:07;13.10;99.90
52643;DHT22;38531;53.296;6.614;2023-09-19T05:17:34;13.10;99.90
52643;DHT22;38531;53.296;6.614;2023-09-19T05:20:00;13.20;99.90
52643;DHT22;38531;53.296;6.614;2023-09-19T05:22:32;13.10;99.90
52643;DHT22;38531;53.296;6.614;2023-09-19T05:25:00;13.20;99.90
52643;DHT22;38531;53.296;6.614;2023-09-19T05:27:28;13.20;99.90
52643;DHT22;38531;53.296;6.614;2023-09-19T05:29:54;13.20;99.90
52643;DHT22;38531;53.296;6.614;2023-09-19T05:32:21;13.20;99.90
52643;DHT22;38531;53.296;6.614;2023-09-19T05:34:48;13.20;99.90
52643;DHT22;38531;53.296;6.614;2023-09-19T05:37:14;13.30;99.90
52643;DHT22;38531;53.296;6.614;2023-09-19T05:39:42;13.30;99.90
52643;DHT22;38531;53.296;6.614;2023-09-19T05:42:08;13.30;99.90
52643;DHT22;38531;53.296;6.614;2023-09-19T05:44:35;13.30;99.90
52643;DHT22;38531;53.296;6.614;2023-09-19T05:47:02;13.30;99.90
52643;DHT22;38531;53.296;6.614;2023-09-19T05:49:28;13.30;99.90
52643;DHT22;38531;53.296;6.614;2023-09-19T05:51:57;13.40;99.90
52643;DHT22;38531;53.296;6.614;2023-09-19T05:54:24;13.40;99.90
52643;DHT22;38531;53.296;6.614;2023-09-19T05:56:50;13.30;99.90
52643;DHT22;38531;53.296;6.614;2023-09-19T05:59:19;13.40;99.90
52643;DHT22;38531;53.296;6.614;2023-09-19T06:01:47;13.40;99.90
52643;DHT22;38531;53.296;6.614;2023-09-19T06:04:13;13.50;99.90
52643;DHT22;38531;53.296;6.614;2023-09-19T06:06:39;13.50;99.90
52643;DHT22;38531;53.296;6.614;2023-09-19T06:09:06;13.40;99.90
52643;DHT22;38531;53.296;6.614;2023-09-19T06:11:34;13.60;99.90
52643;DHT22;38531;53.296;6.614;2023-09-19T06:14:04;13.50;99.90
52643;DHT22;38531;53.296;6.614;2023-09-19T06:16:30;13.50;99.90
52643;DHT22;38531;53.296;6.614;2023-09-19T06:18:59;13.60;99.90
52643;DHT22;38531;53.296;6.614;2023-09-19T06:21:28;13.70;99.90
52643;DHT22;38531;53.296;6.614;2023-09-19T06:23:54;13.70;99.90
52643;DHT22;38531;53.296;6.614;2023-09-19T06:26:20;13.70;99.90
52643;DHT22;38531;53.296;6.614;2023-09-19T06:28:46;13.80;99.90
52643;DHT22;38531;53.296;6.614;2023-09-19T06:31:12;13.80;99.90
52643;DHT22;38531;53.296;6.614;2023-09-19T06:33:38;13.80;99.90
52643;DHT22;38531;53.296;6.614;2023-09-19T06:36:07;13.80;99.90
52643;DHT22;38531;53.296;6.614;2023-09-19T06:38:34;13.90;99.90
52643;DHT22;38531;53.296;6.614;2023-09-19T06:41:02;13.90;99.90
52643;DHT22;38531;53.296;6.614;2023-09-19T06:43:32;14.00;99.90
52643;DHT22;38531;53.296;6.614;2023-09-19T06:46:00;14.00;99.90
52643;DHT22;38531;53.296;6.614;2023-09-19T06:48:26;14.10;99.90
52643;DHT22;38531;53.296;6.614;2023-09-19T06:50:56;14.10;99.90
52643;DHT22;38531;53.296;6.614;2023-09-19T06:53:24;14.10;99.90
52643;DHT22;38531;53.296;6.614;2023-09-19T06:55:52;14.10;99.90
52643;DHT22;38531;53.296;6.614;2023-09-19T06:58:19;14.20;99.90
52643;DHT22;38531;53.296;6.614;2023-09-19T07:00:46;14.20;99.90
52643;DHT22;38531;53.296;6.614;2023-09-19T07:03:14;14.20;99.90
52643;DHT22;38531;53.296;6.614;2023-09-19T07:05:44;14.20;99.90
52643;DHT22;38531;53.296;6.614;2023-09-19T07:08:10;14.30;99.90
52643;DHT22;38531;53.296;6.614;2023-09-19T07:10:38;14.40;99.90
52643;DHT22;38531;53.296;6.614;2023-09-19T07:13:10;14.40;99.90
52643;DHT22;38531;53.296;6.614;2023-09-19T07:15:37;14.40;99.90
52643;DHT22;38531;53.296;6.614;2023-09-19T07:18:16;14.50;99.90
52643;DHT22;38531;53.296;6.614;2023-09-19T07:20:46;14.80;99.90
52643;DHT22;38531;53.296;6.614;2023-09-19T07:23:18;14.70;99.90
52643;DHT22;38531;53.296;6.614;2023-09-19T07:25:47;14.70;99.90
52643;DHT22;38531;53.296;6.614;2023-09-19T07:28:14;14.70;99.90
52643;DHT22;38531;53.296;6.614;2023-09-19T07:30:40;14.80;99.90
52643;DHT22;38531;53.296;6.614;2023-09-19T07:33:09;14.80;99.90
52643;DHT22;38531;53.296;6.614;2023-09-19T07:35:39;14.70;99.90
52643;DHT22;38531;53.296;6.614;2023-09-19T07:38:08;14.90;99.90
52643;DHT22;38531;53.296;6.614;2023-09-19T07:40:35;14.90;99.90
52643;DHT22;38531;53.296;6.614;2023-09-19T07:43:02;14.90;99.90
52643;DHT22;38531;53.296;6.614;2023-09-19T07:45:30;14.90;99.90
52643;DHT22;38531;53.296;6.614;2023-09-19T07:47:57;15.10;99.90
52643;DHT22;38531;53.296;6.614;2023-09-19T07:50:23;15.10;99.90
52643;DHT22;38531;53.296;6.614;2023-09-19T07:52:49;15.20;99.90
52643;DHT22;38531;53.296;6.614;2023-09-19T07:55:19;15.30;99.90
52643;DHT22;38531;53.296;6.614;2023-09-19T07:57:48;15.30;99.90
52643;DHT22;38531;53.296;6.614;2023-09-19T08:00:15;15.40;99.90
52643;DHT22;38531;53.296;6.614;2023-09-19T08:02:41;15.40;99.90
52643;DHT22;38531;53.296;6.614;2023-09-19T08:05:11;15.40;99.90
52643;DHT22;38531;53.296;6.614;2023-09-19T08:07:38;15.50;99.90
52643;DHT22;38531;53.296;6.614;2023-09-19T08:10:15;15.50;99.90
52643;DHT22;38531;53.296;6.614;2023-09-19T08:12:43;15.50;99.90
52643;DHT22;38531;53.296;6.614;2023-09-19T08:15:17;15.70;99.90
52643;DHT22;38531;53.296;6.614;2023-09-19T08:17:43;15.70;99.90
52643;DHT22;38531;53.296;6.614;2023-09-19T08:20:10;15.80;99.90
52643;DHT22;38531;53.296;6.614;2023-09-19T08:22:51;15.90;99.90
52643;DHT22;38531;53.296;6.614;2023-09-19T08:25:21;16.10;99.90
52643;DHT22;38531;53.296;6.614;2023-09-19T08:27:52;16.20;99.90
52643;DHT22;38531;53.296;6.614;2023-09-19T08:30:21;16.30;99.90
52643;DHT22;38531;53.296;6.614;2023-09-19T08:32:57;16.40;99.90
52643;DHT22;38531;53.296;6.614;2023-09-19T08:35:29;16.50;99.90
52643;DHT22;38531;53.296;6.614;2023-09-19T08:37:55;16.60;99.90
52643;DHT22;38531;53.296;6.614;2023-09-19T08:40:22;16.80;99.90
52643;DHT22;38531;53.296;6.614;2023-09-19T08:42:52;17.00;99.90
52643;DHT22;38531;53.296;6.614;2023-09-19T08:45:20;17.10;99.90
52643;DHT22;38531;53.296;6.614;2023-09-19T08:50:28;17.10;99.90
52643;DHT22;38531;53.296;6.614;2023-09-19T08:53:01;17.10;99.90
52643;DHT22;38531;53.296;6.614;2023-09-19T08:55:32;17.10;99.90
52643;DHT22;38531;53.296;6.614;2023-09-19T08:58:04;17.20;99.90
52643;DHT22;38531;53.296;6.614;2023-09-19T09:00:33;17.30;99.90
52643;DHT22;38531;53.296;6.614;2023-09-19T09:03:05;17.30;99.90
52643;DHT22;38531;53.296;6.614;2023-09-19T09:05:36;17.40;99.90
52643;DHT22;38531;53.296;6.614;2023-09-19T09:08:07;17.30;99.90
52643;DHT22;38531;53.296;6.614;2023-09-19T09:10:34;17.40;99.90
52643;DHT22;38531;53.296;6.614;2023-09-19T09:13:00;17.40;99.90
52643;DHT22;38531;53.296;6.614;2023-09-19T09:15:31;17.40;99.90
52643;DHT22;38531;53.296;6.614;2023-09-19T09:17:59;17.50;99.90
52643;DHT22;38531;53.296;6.614;2023-09-19T09:20:25;17.40;99.90
52643;DHT22;38531;53.296;6.614;2023-09-19T09:22:55;16.80;99.90
52643;DHT22;38531;53.296;6.614;2023-09-19T09:25:23;17.50;99.90
52643;DHT22;38531;53.296;6.614;2023-09-19T09:28:11;17.60;99.90
52643;DHT22;38531;53.296;6.614;2023-09-19T09:30:51;17.70;99.90
52643;DHT22;38531;53.296;6.614;2023-09-19T09:33:21;17.70;99.90
52643;DHT22;38531;53.296;6.614;2023-09-19T09:35:58;17.70;99.90
52643;DHT22;38531;53.296;6.614;2023-09-19T09:38:28;17.80;99.90
52643;DHT22;38531;53.296;6.614;2023-09-19T09:40:58;17.90;99.90
52643;DHT22;38531;53.296;6.614;2023-09-19T09:43:41;17.90;99.90
52643;DHT22;38531;53.296;6.614;2023-09-19T09:46:21;18.00;99.90
52643;DHT22;38531;53.296;6.614;2023-09-19T09:48:55;18.10;99.90
52643;DHT22;38531;53.296;6.614;2023-09-19T09:51:42;18.00;99.90
52643;DHT22;38531;53.296;6.614;2023-09-19T09:54:16;18.00;99.90
52643;DHT22;38531;53.296;6.614;2023-09-19T09:57:05;18.00;99.90
52643;DHT22;38531;53.296;6.614;2023-09-19T09:59:52;18.00;99.90
52643;DHT22;38531;53.296;6.614;2023-09-19T10:02:29;18.10;99.90
52643;DHT22;38531;53.296;6.614;2023-09-19T10:05:12;18.20;99.90
52643;DHT22;38531;53.296;6.614;2023-09-19T10:07:54;18.30;99.90
52643;DHT22;38531;53.296;6.614;2023-09-19T10:10:33;18.20;99.90
52643;DHT22;38531;53.296;6.614;2023-09-19T10:13:12;18.30;99.90
52643;DHT22;38531;53.296;6.614;2023-09-19T10:15:50;18.40;99.90
52643;DHT22;38531;53.296;6.614;2023-09-19T10:18:26;18.30;99.90
52643;DHT22;38531;53.296;6.614;2023-09-19T10:20:56;18.30;99.90
52643;DHT22;38531;53.296;6.614;2023-09-19T10:23:23;18.40;99.90
52643;DHT22;38531;53.296;6.614;2023-09-19T10:25:52;18.60;99.90
52643;DHT22;38531;53.296;6.614;2023-09-19T10:28:20;18.80;99.90
52643;DHT22;38531;53.296;6.614;2023-09-19T10:30:53;18.70;99.90
52643;DHT22;38531;53.296;6.614;2023-09-19T10:33:25;18.90;99.90
52643;DHT22;38531;53.296;6.614;2023-09-19T10:36:12;19.00;99.90
52643;DHT22;38531;53.296;6.614;2023-09-19T10:38:41;19.10;99.90
52643;DHT22;38531;53.296;6.614;2023-09-19T10:41:10;19.10;99.90
52643;DHT22;38531;53.296;6.614;2023-09-19T10:43:45;19.00;99.90
52643;DHT22;38531;53.296;6.614;2023-09-19T10:46:16;19.20;99.90
52643;DHT22;38531;53.296;6.614;2023-09-19T10:48:45;19.30;99.90
52643;DHT22;38531;53.296;6.614;2023-09-19T10:51:23;19.30;99.90
52643;DHT22;38531;53.296;6.614;2023-09-19T10:54:12;19.50;99.90
52643;DHT22;38531;53.296;6.614;2023-09-19T10:56:51;19.40;99.90
52643;DHT22;38531;53.296;6.614;2023-09-19T10:59:19;19.40;99.90
52643;DHT22;38531;53.296;6.614;2023-09-19T11:01:47;19.20;99.90
52643;DHT22;38531;53.296;6.614;2023-09-19T11:07:09;19.00;99.90
52643;DHT22;38531;53.296;6.614;2023-09-19T11:09:56;19.00;99.90
52643;DHT22;38531;53.296;6.614;2023-09-19T11:26:50;18.90;99.90
52643;DHT22;38531;53.296;6.614;2023-09-19T11:29:32;18.90;99.90
52643;DHT22;38531;53.296;6.614;2023-09-19T11:32:01;19.00;99.90
52643;DHT22;38531;53.296;6.614;2023-09-19T11:34:40;18.90;99.90
52643;DHT22;38531;53.296;6.614;2023-09-19T11:39:40;18.80;99.90
52643;DHT22;38531;53.296;6.614;2023-09-19T11:42:45;18.80;99.90
52643;DHT22;38531;53.296;6.614;2023-09-19T11:48:06;18.90;99.90
52643;DHT22;38531;53.296;6.614;2023-09-19T11:50:33;19.10;99.90
52643;DHT22;38531;53.296;6.614;2023-09-19T11:53:01;19.10;99.90
52643;DHT22;38531;53.296;6.614;2023-09-19T11:55:31;19.20;99.90
52643;DHT22;38531;53.296;6.614;2023-09-19T11:57:58;19.20;99.90
52643;DHT22;38531;53.296;6.614;2023-09-19T12:00:28;19.10;99.90
52643;DHT22;38531;53.296;6.614;2023-09-19T12:02:55;19.20;99.90
52643;DHT22;38531;53.296;6.614;2023-09-19T12:05:30;19.20;99.90
52643;DHT22;38531;53.296;6.614;2023-09-19T12:07:59;19.20;99.90
52643;DHT22;38531;53.296;6.614;2023-09-19T12:10:25;19.30;99.90
52643;DHT22;38531;53.296;6.614;2023-09-19T12:12:59;19.20;99.90
52643;DHT22;38531;53.296;6.614;2023-09-19T12:15:26;19.00;99.90
52643;DHT22;38531;53.296;6.614;2023-09-19T12:17:54;18.90;99.90
52643;DHT22;38531;53.296;6.614;2023-09-19T12:20:20;18.80;99.90
52643;DHT22;38531;53.296;6.614;2023-09-19T12:22:47;18.70;99.90
52643;DHT22;38531;53.296;6.614;2023-09-19T12:25:15;18.60;99.90
52643;DHT22;38531;53.296;6.614;2023-09-19T12:27:49;18.60;99.90
52643;DHT22;38531;53.296;6.614;2023-09-19T12:30:18;18.50;99.90
52643;DHT22;38531;53.296;6.614;2023-09-19T12:32:46;18.60;99.90
52643;DHT22;38531;53.296;6.614;2023-09-19T12:35:33;18.40;99.90
52643;DHT22;38531;53.296;6.614;2023-09-19T12:38:02;18.50;99.90
52643;DHT22;38531;53.296;6.614;2023-09-19T12:40:30;18.40;99.90
52643;DHT22;38531;53.296;6.614;2023-09-19T12:42:59;18.30;99.90
52643;DHT22;38531;53.296;6.614;2023-09-19T12:45:28;18.20;99.90
52643;DHT22;38531;53.296;6.614;2023-09-19T12:48:25;18.10;99.90
52643;DHT22;38531;53.296;6.614;2023-09-19T12:51:12;17.90;99.90
52643;DHT22;38531;53.296;6.614;2023-09-19T12:53:46;18.00;99.90
52643;DHT22;38531;53.296;6.614;2023-09-19T12:56:15;18.10;99.90
52643;DHT22;38531;53.296;6.614;2023-09-19T12:58:58;18.10;99.90
52643;DHT22;38531;53.296;6.614;2023-09-19T13:01:27;18.20;99.90
52643;DHT22;38531;53.296;6.614;2023-09-19T13:04:12;18.20;99.90
52643;DHT22;38531;53.296;6.614;2023-09-19T13:06:38;18.30;99.90
52643;DHT22;38531;53.296;6.614;2023-09-19T13:09:12;18.30;99.90
52643;DHT22;38531;53.296;6.614;2023-09-19T13:11:39;18.20;99.90
52643;DHT22;38531;53.296;6.614;2023-09-19T13:14:25;18.30;99.90
52643;DHT22;38531;53.296;6.614;2023-09-19T13:16:58;18.20;99.90
52643;DHT22;38531;53.296;6.614;2023-09-19T13:25:14;18.20;99.90
52643;DHT22;38531;53.296;6.614;2023-09-19T13:27:49;18.20;99.90
52643;DHT22;38531;53.296;6.614;2023-09-19T13:30:21;18.20;99.90
52643;DHT22;38531;53.296;6.614;2023-09-19T13:32:47;18.00;99.90
52643;DHT22;38531;53.296;6.614;2023-09-19T13:35:16;17.90;99.90
52643;DHT22;38531;53.296;6.614;2023-09-19T13:37:43;17.80;99.90
52643;DHT22;38531;53.296;6.614;2023-09-19T13:40:13;17.80;99.90
52643;DHT22;38531;53.296;6.614;2023-09-19T13:42:40;17.50;99.90
52643;DHT22;38531;53.296;6.614;2023-09-19T13:45:07;17.40;99.90
52643;DHT22;38531;53.296;6.614;2023-09-19T13:47:33;17.40;99.90
52643;DHT22;38531;53.296;6.614;2023-09-19T13:50:01;17.40;99.90
52643;DHT22;38531;53.296;6.614;2023-09-19T13:52:29;17.50;99.90
52643;DHT22;38531;53.296;6.614;2023-09-19T13:54:59;17.50;99.90
52643;DHT22;38531;53.296;6.614;2023-09-19T13:57:26;17.60;99.90
52643;DHT22;38531;53.296;6.614;2023-09-19T13:59:55;17.70;99.90
52643;DHT22;38531;53.296;6.614;2023-09-19T14:02:24;17.70;99.90
52643;DHT22;38531;53.296;6.614;2023-09-19T14:04:53;17.90;99.90
52643;DHT22;38531;53.296;6.614;2023-09-19T14:07:23;17.80;99.90
52643;DHT22;38531;53.296;6.614;2023-09-19T14:09:55;18.10;99.90
52643;DHT22;38531;53.296;6.614;2023-09-19T14:12:21;18.10;99.90
52643;DHT22;38531;53.296;6.614;2023-09-19T14:14:49;18.10;99.90
52643;DHT22;38531;53.296;6.614;2023-09-19T14:17:16;18.10;99.90
52643;DHT22;38531;53.296;6.614;2023-09-19T14:19:47;18.20;99.90
52643;DHT22;38531;53.296;6.614;2023-09-19T14:22:15;18.20;99.90
52643;DHT22;38531;53.296;6.614;2023-09-19T14:24:45;18.20;99.90
52643;DHT22;38531;53.296;6.614;2023-09-19T14:27:13;18.20;99.90
52643;DHT22;38531;53.296;6.614;2023-09-19T14:29:40;18.40;99.90
52643;DHT22;38531;53.296;6.614;2023-09-19T14:32:07;18.30;99.90
52643;DHT22;38531;53.296;6.614;2023-09-19T14:34:37;18.30;99.90
52643;DHT22;38531;53.296;6.614;2023-09-19T14:37:09;18.70;99.90
52643;DHT22;38531;53.296;6.614;2023-09-19T14:39:39;18.40;99.90
52643;DHT22;38531;53.296;6.614;2023-09-19T14:42:06;18.40;99.90
52643;DHT22;38531;53.296;6.614;2023-09-19T14:44:32;18.40;99.90
52643;DHT22;38531;53.296;6.614;2023-09-19T14:46:58;18.30;99.90
52643;DHT22;38531;53.296;6.614;2023-09-19T14:49:24;18.30;99.90
52643;DHT22;38531;53.296;6.614;2023-09-19T14:55:31;18.10;99.90
52643;DHT22;38531;53.296;6.614;2023-09-19T14:58:03;18.20;99.90
52643;DHT22;38531;53.296;6.614;2023-09-19T15:00:32;18.20;99.90
52643;DHT22;38531;53.296;6.614;2023-09-19T15:02:59;18.10;99.90
52643;DHT22;38531;53.296;6.614;2023-09-19T15:05:25;17.90;99.90
52643;DHT22;38531;53.296;6.614;2023-09-19T15:07:51;17.90;99.90
52643;DHT22;38531;53.296;6.614;2023-09-19T15:10:17;17.90;99.90
52643;DHT22;38531;53.296;6.614;2023-09-19T15:12:44;17.90;99.90
52643;DHT22;38531;53.296;6.614;2023-09-19T15:15:12;17.80;99.90
52643;DHT22;38531;53.296;6.614;2023-09-19T15:17:38;17.70;99.90
52643;DHT22;38531;53.296;6.614;2023-09-19T15:20:05;17.60;99.90
52643;DHT22;38531;53.296;6.614;2023-09-19T15:22:35;17.70;99.90
52643;DHT22;38531;53.296;6.614;2023-09-19T15:25:02;17.60;99.90
52643;DHT22;38531;53.296;6.614;2023-09-19T15:27:56;17.40;99.90
52643;DHT22;38531;53.296;6.614;2023-09-19T15:30:26;17.40;99.90
52643;DHT22;38531;53.296;6.614;2023-09-19T15:32:52;17.40;99.90
52643;DHT22;38531;53.296;6.614;2023-09-19T15:35:22;17.30;99.90
52643;DHT22;38531;53.296;6.614;2023-09-19T15:37:57;17.30;99.90
52643;DHT22;38531;53.296;6.614;2023-09-19T15:40:29;17.30;99.90
52643;DHT22;38531;53.296;6.614;2023-09-19T15:42:55;17.20;99.90
52643;DHT22;38531;53.296;6.614;2023-09-19T15:45:29;17.10;99.90
52643;DHT22;38531;53.296;6.614;2023-09-19T15:48:18;17.00;99.90
52643;DHT22;38531;53.296;6.614;2023-09-19T15:50:47;16.90;99.90
52643;DHT22;38531;53.296;6.614;2023-09-19T15:53:13;17.00;99.90
52643;DHT22;38531;53.296;6.614;2023-09-19T15:55:39;16.90;99.90
52643;DHT22;38531;53.296;6.614;2023-09-19T15:58:08;16.80;99.90
52643;DHT22;38531;53.296;6.614;2023-09-19T16:00:40;16.80;99.90
52643;DHT22;38531;53.296;6.614;2023-09-19T16:03:06;16.80;99.90
52643;DHT22;38531;53.296;6.614;2023-09-19T16:05:37;16.90;99.90
52643;DHT22;38531;53.296;6.614;2023-09-19T16:08:07;17.10;99.90
52643;DHT22;38531;53.296;6.614;2023-09-19T16:10:37;16.90;99.90
52643;DHT22;38531;53.296;6.614;2023-09-19T16:13:03;17.00;99.90
52643;DHT22;38531;53.296;6.614;2023-09-19T16:15:41;16.80;99.90
52643;DHT22;38531;53.296;6.614;2023-09-19T16:18:10;17.00;99.90
52643;DHT22;38531;53.296;6.614;2023-09-19T16:20:36;16.90;99.90
52643;DHT22;38531;53.296;6.614;2023-09-19T16:23:04;16.90;99.90
52643;DHT22;38531;53.296;6.614;2023-09-19T16:25:35;17.00;99.90
52643;DHT22;38531;53.296;6.614;2023-09-19T16:28:01;16.90;99.90
52643;DHT22;38531;53.296;6.614;2023-09-19T16:30:37;17.00;99.90
52643;DHT22;38531;53.296;6.614;2023-09-19T16:33:12;16.90;99.90
52643;DHT22;38531;53.296;6.614;2023-09-19T16:35:40;17.00;99.90
52643;DHT22;38531;53.296;6.614;2023-09-19T16:38:06;17.00;99.90
52643;DHT22;38531;53.296;6.614;2023-09-19T16:40:32;16.80;99.90
52643;DHT22;38531;53.296;6.614;2023-09-19T16:43:01;16.80;99.90
52643;DHT22;38531;53.296;6.614;2023-09-19T16:45:27;16.80;99.90
52643;DHT22;38531;53.296;6.614;2023-09-19T16:47:54;16.70;99.90
52643;DHT22;38531;53.296;6.614;2023-09-19T16:50:24;16.80;99.90